createdAt,value
2022-08-07T00:35:56.942Z,100
2022-08-07T00:45:59.476Z,100
2022-08-07T00:56:02.459Z,100
2022-08-07T01:56:14.858Z,100
2022-08-07T02:16:19.596Z,100
2022-08-07T02:26:32.281Z,100
2022-08-07T02:36:27.294Z,100
2022-08-07T02:46:25.751Z,100
2022-08-07T03:16:31.175Z,100
2022-08-07T03:36:36.113Z,100
2022-08-07T03:47:10.667Z,100
2022-08-07T04:06:42.428Z,100
2022-08-07T04:16:58.079Z,100
2022-08-07T05:27:01.062Z,100
2022-08-07T05:57:07.452Z,100
2022-08-07T06:07:09.685Z,100
2022-08-07T06:17:11.645Z,100
2022-08-07T06:27:14.175Z,100
2022-08-07T07:17:28.919Z,100
2022-08-07T07:37:45.668Z,100
2022-08-07T07:47:42.665Z,100
2022-08-07T07:57:44.184Z,100
2022-08-07T08:07:42.265Z,100
2022-08-07T08:17:57.046Z,100
2022-08-07T08:27:44.090Z,100
2022-08-07T08:38:00.198Z,100
2022-08-07T08:57:49.150Z,100
2022-08-07T09:07:57.929Z,100
2022-08-07T09:17:58.868Z,100
2022-08-07T09:27:59.940Z,100
2022-08-07T09:48:03.935Z,100
2022-08-07T09:58:02.765Z,100
2022-08-07T10:08:04.785Z,100
2022-08-07T10:18:07.423Z,100
2022-08-07T10:38:21.446Z,100
2022-08-07T10:48:13.627Z,100
2022-08-07T10:58:15.847Z,100
2022-08-07T11:08:17.688Z,100
2022-08-07T11:28:21.210Z,100
2022-08-07T11:38:26.797Z,94
2022-08-07T11:48:29.268Z,89
2022-08-07T11:58:33.296Z,89
2022-08-07T12:08:31.965Z,82
2022-08-07T12:18:32.031Z,83
2022-08-07T12:28:33.814Z,83
2022-08-07T12:38:39.406Z,85
2022-08-07T12:48:41.271Z,82
2022-08-07T12:58:40.273Z,74
2022-08-07T13:18:45.018Z,71
2022-08-07T13:28:46.675Z,74
2022-08-07T13:38:48.954Z,69
2022-08-07T13:48:51.802Z,68
2022-08-07T13:58:56.656Z,70
2022-08-07T14:18:57.712Z,71
2022-08-07T14:29:05.796Z,72
2022-08-07T14:39:02.977Z,74
2022-08-07T14:49:17.696Z,73
2022-08-07T14:59:13.577Z,67
2022-08-07T15:09:47.187Z,72
2022-08-07T15:30:04.155Z,73
2022-08-07T15:39:16.180Z,76
2022-08-07T15:49:17.803Z,74
2022-08-07T15:59:20.403Z,77
2022-08-07T16:09:23.017Z,73
2022-08-07T16:19:42.367Z,79
2022-08-07T16:30:07.913Z,76
2022-08-07T16:39:33.929Z,75
2022-08-07T16:50:19.683Z,76
2022-08-07T16:59:44.135Z,80
2022-08-07T17:10:05.941Z,82
2022-08-07T17:20:00.457Z,86
2022-08-07T17:30:13.326Z,91
2022-08-07T17:39:53.317Z,100
2022-08-07T17:49:45.005Z,100
2022-08-07T17:59:46.362Z,100
2022-08-07T18:10:06.938Z,100
2022-08-07T18:21:04.671Z,100
2022-08-07T18:30:04.993Z,100
2022-08-07T18:40:06.170Z,100
2022-08-07T18:50:06.472Z,100
2022-08-07T19:00:00.384Z,100
2022-08-07T19:02:55.100Z,100
2022-08-07T19:10:18.404Z,100
2022-08-07T19:20:28.773Z,100
2022-08-07T19:30:59.247Z,100
2022-08-07T19:40:30.625Z,100
2022-08-07T19:50:41.882Z,100
2022-08-07T20:00:28.631Z,100
2022-08-07T20:10:34.853Z,100
2022-08-07T20:20:26.597Z,100
2022-08-07T20:30:29.241Z,100
2022-08-07T20:40:34.441Z,100
2022-08-07T20:50:34.099Z,100
2022-08-07T21:00:40.522Z,100
2022-08-07T21:10:38.174Z,100
2022-08-07T21:20:40.757Z,100
2022-08-07T21:30:42.921Z,100
2022-08-07T21:40:45.520Z,100
2022-08-07T21:50:47.467Z,100
2022-08-07T22:00:50.006Z,100
2022-08-07T22:10:51.120Z,100
2022-08-07T22:20:52.898Z,100
2022-08-07T22:30:55.298Z,100
2022-08-07T22:40:57.647Z,100
2022-08-07T22:50:59.827Z,100
2022-08-07T23:01:02.334Z,100
2022-08-07T23:11:07.395Z,100
2022-08-07T23:21:06.509Z,100
2022-08-07T23:31:11.407Z,100
2022-08-07T23:41:10.964Z,100
2022-08-07T23:52:59.246Z,100
